Wetterdaten: Woche 12.03.07 - 18.03.07 (KW11)
Datum Zeit Temperatur Luftfeuchte Luftdruck Niederschlag Wind Richtung Sonnenschein UV-Strahlung Solar Taupunkt Windchill Windben
12.03.2007 00:00 4.4 C 67 % 1029.5 hPa 0.0 l/m 1.4 km/h (1 Bft) O 0.00 h 0.0 UV-I 0 W/m -1.3 C 4.4 C 3.2 km/h (1 Bft)
12.03.2007 01:00 2.9 C 73 % 1029.1 hPa 0.0 l/m 1.4 km/h (1 Bft) O 0.00 h 0.0 UV-I 0 W/m -1.4 C 2.9 C 2.7 km/h (1 Bft)
12.03.2007 02:00 2.0 C 78 % 1028.7 hPa 0.0 l/m 2.5 km/h (1 Bft) O 0.00 h 0.0 UV-I 0 W/m -1.5 C 1.7 C 4.1 km/h (1 Bft)
12.03.2007 03:00 0.7 C 85 % 1028.4 hPa 0.0 l/m 0.9 km/h (0 Bft) O 0.00 h 0.0 UV-I 0 W/m -1.5 C 0.7 C 2.2 km/h (1 Bft)
12.03.2007 04:00 0.4 C 85 % 1028.5 hPa 0.0 l/m 1.2 km/h (1 Bft) O 0.00 h 0.0 UV-I 0 W/m -1.8 C 0.4 C 2.2 km/h (1 Bft)
12.03.2007 05:00 -0.3 C 87 % 1028.6 hPa 0.0 l/m 0.9 km/h (0 Bft) O 0.00 h 0.0 UV-I 0 W/m -2.2 C -0.3 C 1.9 km/h (1 Bft)
12.03.2007 06:00 -0.8 C 89 % 1028.7 hPa 0.0 l/m 0.1 km/h (0 Bft) O 0.00 h 0.0 UV-I 7 W/m -2.3 C -0.8 C 0.5 km/h (0 Bft)
12.03.2007 07:00 -0.9 C 90 % 1029.0 hPa 0.0 l/m 1.7 km/h (1 Bft) O 0.33 h 0.0 UV-I 56 W/m -2.3 C -0.9 C 2.8 km/h (1 Bft)
12.03.2007 08:00 1.2 C 85 % 1029.1 hPa 0.0 l/m 0.8 km/h (0 Bft) O 1.00 h 0.7 UV-I 204 W/m -1.0 C 1.2 C 1.8 km/h (1 Bft)
12.03.2007 09:00 3.5 C 76 % 1028.8 hPa 0.0 l/m 0.4 km/h (0 Bft) O 1.00 h 1.4 UV-I 358 W/m -0.3 C 3.5 C 1.6 km/h (1 Bft)
12.03.2007 10:00 5.9 C 67 % 1028.5 hPa 0.0 l/m 2.1 km/h (1 Bft) N-NW 1.00 h 2.3 UV-I 491 W/m 0.3 C 5.8 C 4.1 km/h (1 Bft)
12.03.2007 11:00 8.0 C 61 % 1028.0 hPa 0.0 l/m 2.3 km/h (1 Bft) SO 1.00 h 3.1 UV-I 577 W/m 0.9 C 7.9 C 4.4 km/h (1 Bft)
12.03.2007 12:00 10.1 C 56 % 1027.3 hPa 0.0 l/m 3.2 km/h (1 Bft) SO 1.00 h 3.4 UV-I 613 W/m 1.6 C 10.0 C 5.8 km/h (2 Bft)
12.03.2007 13:00 12.2 C 52 % 1026.4 hPa 0.0 l/m 4.5 km/h (1 Bft) SO 1.00 h 3.1 UV-I 595 W/m 2.6 C 12.2 C 7.4 km/h (2 Bft)
12.03.2007 14:00 14.3 C 44 % 1025.5 hPa 0.0 l/m 3.6 km/h (1 Bft) S-SO 1.00 h 2.4 UV-I 527 W/m 2.1 C 14.3 C 6.9 km/h (2 Bft)
12.03.2007 15:00 15.2 C 33 % 1025.1 hPa 0.0 l/m 7.2 km/h (2 Bft) W 1.00 h 1.6 UV-I 414 W/m -1.2 C 15.2 C 11.3 km/h (2 Bft)
12.03.2007 16:00 15.3 C 30 % 1024.6 hPa 0.0 l/m 7.8 km/h (2 Bft) W 1.00 h 0.8 UV-I 272 W/m -2.2 C 15.3 C 11.4 km/h (2 Bft)
12.03.2007 17:00 14.8 C 34 % 1024.9 hPa 0.0 l/m 2.5 km/h (1 Bft) W 0.33 h 0.5 UV-I 72 W/m -0.8 C 14.8 C 4.2 km/h (1 Bft)
12.03.2007 18:00 11.8 C 51 % 1025.3 hPa 0.0 l/m 0.9 km/h (0 Bft) SO 0.00 h 0.0 UV-I 11 W/m 1.8 C 11.8 C 1.7 km/h (1 Bft)
12.03.2007 19:00 8.0 C 71 % 1026.2 hPa 0.0 l/m 2.9 km/h (1 Bft) O-SO 0.00 h 0.0 UV-I 0 W/m 3.1 C 7.7 C 4.1 km/h (1 Bft)
12.03.2007 20:00 6.6 C 76 % 1026.8 hPa 0.0 l/m 0.4 km/h (0 Bft) O-SO 0.00 h 0.0 UV-I 0 W/m 2.6 C 6.6 C 1.0 km/h (0 Bft)
12.03.2007 21:00 4.9 C 81 % 1027.2 hPa 0.0 l/m 0.9 km/h (0 Bft) O-SO 0.00 h 0.0 UV-I 0 W/m 2.0 C 4.9 C 1.9 km/h (1 Bft)
12.03.2007 22:00 4.1 C 84 % 1027.4 hPa 0.0 l/m 0.7 km/h (0 Bft) O-SO 0.00 h 0.0 UV-I 0 W/m 1.6 C 4.1 C 1.9 km/h (1 Bft)
12.03.2007 23:00 3.3 C 86 % 1027.3 hPa 0.0 l/m 1.8 km/h (1 Bft) O-SO 0.00 h 0.0 UV-I 0 W/m 1.1 C 3.3 C 2.9 km/h (1 Bft)
13.03.2007 00:00 2.6 C 87 % 1027.3 hPa 0.0 l/m 2.0 km/h (1 Bft) O 0.00 h 0.0 UV-I 0 W/m 0.7 C 2.6 C 3.6 km/h (1 Bft)
13.03.2007 01:00 1.8 C 90 % 1027.2 hPa 0.0 l/m 0.7 km/h (0 Bft) O 0.00 h 0.0 UV-I 0 W/m 0.3 C 1.8 C 1.3 km/h (1 Bft)
13.03.2007 02:00 1.4 C 91 % 1027.3 hPa 0.0 l/m 1.7 km/h (1 Bft) O 0.00 h 0.0 UV-I 0 W/m 0.1 C 1.4 C 2.8 km/h (1 Bft)
13.03.2007 03:00 0.6 C 93 % 1027.2 hPa 0.0 l/m 0.7 km/h (0 Bft) O 0.00 h 0.0 UV-I 0 W/m -0.5 C 0.6 C 1.6 km/h (1 Bft)
13.03.2007 04:00 0.4 C 93 % 1027.2 hPa 0.0 l/m 0.7 km/h (0 Bft) O-SO 0.00 h 0.0 UV-I 0 W/m -0.6 C 0.4 C 1.0 km/h (0 Bft)
13.03.2007 05:00 0.0 C 94 % 1027.8 hPa 0.0 l/m 0.3 km/h (0 Bft) O-SO 0.00 h 0.0 UV-I 0 W/m -0.8 C 0.0 C 0.7 km/h (0 Bft)
13.03.2007 06:00 -0.2 C 95 % 1028.4 hPa 0.0 l/m 0.2 km/h (0 Bft) O-SO 0.02 h 0.0 UV-I 8 W/m -1.0 C -0.2 C 0.7 km/h (0 Bft)
13.03.2007 07:00 -0.1 C 95 % 1029.2 hPa 0.0 l/m 0.0 km/h (0 Bft) N 0.33 h 0.0 UV-I 62 W/m -0.8 C -0.1 C 0.0 km/h (0 Bft)
13.03.2007 08:00 1.6 C 91 % 1029.6 hPa 0.0 l/m 0.1 km/h (0 Bft) O-SO 0.97 h 0.7 UV-I 195 W/m 0.3 C 1.6 C 0.5 km/h (0 Bft)
13.03.2007 09:00 4.0 C 85 % 1029.8 hPa 0.0 l/m 0.8 km/h (0 Bft) O-SO 1.00 h 1.3 UV-I 356 W/m 1.7 C 4.0 C 1.9 km/h (1 Bft)
13.03.2007 10:00 6.7 C 76 % 1029.7 hPa 0.0 l/m 0.7 km/h (0 Bft) W 1.00 h 2.2 UV-I 464 W/m 2.8 C 6.7 C 2.3 km/h (1 Bft)
13.03.2007 11:00 10.0 C 64 % 1029.3 hPa 0.0 l/m 0.9 km/h (0 Bft) W 1.00 h 2.9 UV-I 560 W/m 3.5 C 10.0 C 2.4 km/h (1 Bft)
13.03.2007 12:00 12.4 C 55 % 1028.9 hPa 0.0 l/m 1.5 km/h (1 Bft) W-NW 1.00 h 3.1 UV-I 562 W/m 3.7 C 12.4 C 3.3 km/h (1 Bft)
13.03.2007 13:00 14.3 C 51 % 1028.1 hPa 0.0 l/m 1.0 km/h (0 Bft) W-NW 1.00 h 2.9 UV-I 527 W/m 4.4 C 14.3 C 2.6 km/h (1 Bft)
13.03.2007 14:00 16.1 C 44 % 1027.7 hPa 0.0 l/m 2.2 km/h (1 Bft) N-NW 1.00 h 2.4 UV-I 519 W/m 3.9 C 16.1 C 4.2 km/h (1 Bft)
13.03.2007 15:00 17.2 C 41 % 1027.4 hPa 0.0 l/m 2.1 km/h (1 Bft) NW 1.00 h 1.6 UV-I 405 W/m 3.8 C 17.2 C 4.0 km/h (1 Bft)
13.03.2007 16:00 17.7 C 40 % 1027.1 hPa 0.0 l/m 2.0 km/h (1 Bft) NW 1.00 h 0.8 UV-I 247 W/m 3.9 C 17.7 C 3.9 km/h (1 Bft)
13.03.2007 17:00 17.0 C 36 % 1027.5 hPa 0.0 l/m 1.8 km/h (1 Bft) N-NW 0.33 h 0.5 UV-I 75 W/m 1.9 C 17.0 C 3.5 km/h (1 Bft)
13.03.2007 18:00 14.1 C 47 % 1028.0 hPa 0.0 l/m 1.9 km/h (1 Bft) O-SO 0.02 h 0.0 UV-I 13 W/m 2.8 C 14.1 C 3.3 km/h (1 Bft)
13.03.2007 19:00 11.5 C 60 % 1028.7 hPa 0.0 l/m 4.3 km/h (1 Bft) O 0.00 h 0.0 UV-I 0 W/m 3.9 C 11.5 C 6.0 km/h (2 Bft)
13.03.2007 20:00 8.6 C 71 % 1029.3 hPa 0.0 l/m 1.3 km/h (1 Bft) O 0.00 h 0.0 UV-I 0 W/m 3.6 C 8.6 C 2.4 km/h (1 Bft)
13.03.2007 21:00 7.3 C 75 % 1029.6 hPa 0.0 l/m 2.4 km/h (1 Bft) O 0.00 h 0.0 UV-I 0 W/m 3.1 C 7.1 C 3.5 km/h (1 Bft)
13.03.2007 22:00 5.7 C 80 % 1030.1 hPa 0.0 l/m 2.2 km/h (1 Bft) O-SO 0.00 h 0.0 UV-I 0 W/m 2.6 C 5.6 C 3.5 km/h (1 Bft)
13.03.2007 23:00 5.4 C 81 % 1030.4 hPa 0.0 l/m 1.0 km/h (0 Bft) O-SO 0.00 h 0.0 UV-I 0 W/m 2.5 C 5.4 C 1.9 km/h (1 Bft)
14.03.2007 00:00 4.4 C 85 % 1030.8 hPa 0.0 l/m 1.0 km/h (0 Bft) O-SO 0.00 h 0.0 UV-I 0 W/m 2.1 C 4.4 C 1.9 km/h (1 Bft)
14.03.2007 01:00 4.0 C 85 % 1031.0 hPa 0.0 l/m 1.4 km/h (1 Bft) O-SO 0.00 h 0.0 UV-I 0 W/m 1.8 C 3.9 C 2.5 km/h (1 Bft)
14.03.2007 02:00 3.4 C 88 % 1030.9 hPa 0.0 l/m 0.3 km/h (0 Bft) O-SO 0.00 h 0.0 UV-I 0 W/m 1.5 C 3.4 C 0.9 km/h (0 Bft)
14.03.2007 03:00 3.0 C 89 % 1030.7 hPa 0.0 l/m 0.6 km/h (0 Bft) O-SO 0.00 h 0.0 UV-I 0 W/m 1.3 C 3.0 C 1.5 km/h (1 Bft)
14.03.2007 04:00 2.5 C 90 % 1030.8 hPa 0.0 l/m 0.8 km/h (0 Bft) O-SO 0.00 h 0.0 UV-I 0 W/m 1.1 C 2.5 C 1.7 km/h (1 Bft)
14.03.2007 05:00 2.1 C 91 % 1031.3 hPa 0.0 l/m 0.9 km/h (0 Bft) O-SO 0.00 h 0.0 UV-I 0 W/m 0.9 C 2.1 C 2.1 km/h (1 Bft)
14.03.2007 06:00 1.8 C 92 % 1031.6 hPa 0.0 l/m 1.0 km/h (0 Bft) O 0.02 h 0.0 UV-I 9 W/m 0.7 C 1.8 C 2.1 km/h (1 Bft)
14.03.2007 07:00 2.0 C 92 % 1032.2 hPa 0.0 l/m 1.6 km/h (1 Bft) O 0.00 h 0.0 UV-I 59 W/m 0.8 C 2.0 C 3.1 km/h (1 Bft)
14.03.2007 08:00 3.8 C 87 % 1032.4 hPa 0.0 l/m 0.1 km/h (0 Bft) O 0.95 h 0.7 UV-I 192 W/m 1.8 C 3.8 C 0.7 km/h (0 Bft)
14.03.2007 09:00 6.0 C 79 % 1032.4 hPa 0.0 l/m 1.0 km/h (0 Bft) N 1.00 h 1.4 UV-I 345 W/m 2.5 C 6.0 C 2.7 km/h (1 Bft)
14.03.2007 10:00 8.9 C 69 % 1032.1 hPa 0.0 l/m 1.2 km/h (1 Bft) N 1.00 h 2.3 UV-I 471 W/m 3.5 C 8.9 C 2.7 km/h (1 Bft)
14.03.2007 11:00 11.8 C 61 % 1031.5 hPa 0.0 l/m 2.2 km/h (1 Bft) N-NW 1.00 h 3.0 UV-I 552 W/m 4.5 C 11.8 C 3.9 km/h (1 Bft)
14.03.2007 12:00 14.9 C 52 % 1030.9 hPa 0.0 l/m 3.6 km/h (1 Bft) SO 1.00 h 3.2 UV-I 586 W/m 5.2 C 14.9 C 6.6 km/h (2 Bft)
14.03.2007 13:00 16.1 C 47 % 1030.2 hPa 0.0 l/m 6.1 km/h (2 Bft) O-SO 1.00 h 3.0 UV-I 570 W/m 4.9 C 16.1 C 9.7 km/h (2 Bft)
14.03.2007 14:00 16.8 C 46 % 1029.8 hPa 0.0 l/m 6.4 km/h (2 Bft) O-SO 1.00 h 2.4 UV-I 506 W/m 5.0 C 16.8 C 9.8 km/h (2 Bft)
14.03.2007 15:00 17.2 C 45 % 1029.6 hPa 0.0 l/m 4.5 km/h (1 Bft) SO 1.00 h 1.5 UV-I 383 W/m 5.1 C 17.2 C 7.6 km/h (2 Bft)
14.03.2007 16:00 16.8 C 46 % 1029.3 hPa 0.0 l/m 5.4 km/h (1 Bft) O-SO 1.00 h 0.8 UV-I 232 W/m 5.1 C 16.8 C 8.6 km/h (2 Bft)
14.03.2007 17:00 15.9 C 51 % 1029.4 hPa 0.0 l/m 3.3 km/h (1 Bft) N 0.27 h 0.5 UV-I 76 W/m 5.7 C 15.9 C 5.8 km/h (2 Bft)
14.03.2007 18:00 13.9 C 59 % 1030.0 hPa 0.0 l/m 2.9 km/h (1 Bft) N 0.00 h 0.0 UV-I 16 W/m 6.0 C 13.9 C 4.6 km/h (1 Bft)
14.03.2007 19:00 12.1 C 64 % 1030.4 hPa 0.0 l/m 0.4 km/h (0 Bft) N 0.00 h 0.0 UV-I 0 W/m 5.6 C 12.1 C 1.6 km/h (1 Bft)
14.03.2007 20:00 11.5 C 61 % 1030.5 hPa 0.0 l/m 3.2 km/h (1 Bft) N-NO 0.00 h 0.0 UV-I 0 W/m 4.3 C 11.5 C 6.4 km/h (2 Bft)
14.03.2007 21:00 10.7 C 64 % 1030.8 hPa 0.0 l/m 2.8 km/h (1 Bft) NO 0.00 h 0.0 UV-I 0 W/m 4.3 C 10.7 C 6.0 km/h (2 Bft)
14.03.2007 22:00 10.1 C 69 % 1030.7 hPa 0.0 l/m 3.0 km/h (1 Bft) N-NO 0.00 h 0.0 UV-I 0 W/m 4.6 C 10.0 C 6.6 km/h (2 Bft)
14.03.2007 23:00 8.8 C 75 % 1030.5 hPa 0.0 l/m 1.1 km/h (0 Bft) N-NO 0.00 h 0.0 UV-I 0 W/m 4.7 C 8.7 C 2.7 km/h (1 Bft)
15.03.2007 00:00 8.0 C 79 % 1030.2 hPa 0.0 l/m 0.1 km/h (0 Bft) O 0.00 h 0.0 UV-I 0 W/m 4.6 C 8.0 C 0.5 km/h (0 Bft)
15.03.2007 01:00 7.0 C 82 % 1030.0 hPa 0.0 l/m 0.5 km/h (0 Bft) O 0.00 h 0.0 UV-I 0 W/m 4.1 C 7.0 C 1.8 km/h (1 Bft)
15.03.2007 02:00 6.7 C 83 % 1029.7 hPa 0.0 l/m 0.0 km/h (0 Bft) O-NO 0.00 h 0.0 UV-I 0 W/m 4.0 C 6.7 C 0.4 km/h (0 Bft)
15.03.2007 03:00 5.2 C 87 % 1029.3 hPa 0.0 l/m 0.3 km/h (0 Bft) O-NO 0.00 h 0.0 UV-I 0 W/m 3.2 C 5.2 C 1.3 km/h (1 Bft)
15.03.2007 04:00 4.4 C 90 % 1029.2 hPa 0.0 l/m 0.1 km/h (0 Bft) O 0.00 h 0.0 UV-I 0 W/m 2.9 C 4.4 C 1.2 km/h (1 Bft)
15.03.2007 05:00 3.6 C 92 % 1029.2 hPa 0.0 l/m 2.1 km/h (1 Bft) O 0.00 h 0.0 UV-I 0 W/m 2.5 C 3.6 C 3.5 km/h (1 Bft)
15.03.2007 06:00 3.1 C 93 % 1029.3 hPa 0.0 l/m 0.7 km/h (0 Bft) O 0.02 h 0.0 UV-I 9 W/m 2.2 C 3.1 C 1.7 km/h (1 Bft)
15.03.2007 07:00 2.9 C 94 % 1029.6 hPa 0.0 l/m 0.2 km/h (0 Bft) O 0.00 h 0.0 UV-I 53 W/m 2.1 C 2.9 C 0.7 km/h (0 Bft)
15.03.2007 08:00 4.3 C 92 % 1029.7 hPa 0.0 l/m 0.0 km/h (0 Bft) N 0.23 h 0.6 UV-I 164 W/m 3.1 C 4.3 C 0.1 km/h (0 Bft)
15.03.2007 09:00 6.5 C 85 % 1029.4 hPa 0.0 l/m 0.4 km/h (0 Bft) O 1.00 h 1.2 UV-I 306 W/m 4.1 C 6.5 C 1.6 km/h (1 Bft)
15.03.2007 10:00 9.2 C 76 % 1028.9 hPa 0.0 l/m 1.8 km/h (1 Bft) NW 1.00 h 2.0 UV-I 435 W/m 5.2 C 9.2 C 3.7 km/h (1 Bft)
15.03.2007 11:00 11.9 C 67 % 1028.3 hPa 0.0 l/m 2.2 km/h (1 Bft) NW 1.00 h 2.7 UV-I 522 W/m 6.0 C 11.9 C 3.9 km/h (1 Bft)
15.03.2007 12:00 13.5 C 64 % 1027.6 hPa 0.0 l/m 4.9 km/h (1 Bft) SO 1.00 h 3.0 UV-I 564 W/m 6.8 C 13.5 C 8.0 km/h (2 Bft)
15.03.2007 13:00 14.5 C 60 % 1026.7 hPa 0.0 l/m 5.3 km/h (1 Bft) O-SO 1.00 h 2.8 UV-I 553 W/m 6.9 C 14.5 C 8.6 km/h (2 Bft)
15.03.2007 14:00 15.5 C 54 % 1025.9 hPa 0.0 l/m 5.0 km/h (1 Bft) O-SO 1.00 h 2.2 UV-I 497 W/m 6.3 C 15.5 C 7.9 km/h (2 Bft)
15.03.2007 15:00 16.2 C 50 % 1025.5 hPa 0.0 l/m 3.2 km/h (1 Bft) SO 1.00 h 1.5 UV-I 389 W/m 5.8 C 16.2 C 5.7 km/h (1 Bft)
15.03.2007 16:00 16.3 C 47 % 1025.0 hPa 0.0 l/m 3.1 km/h (1 Bft) SO 1.00 h 0.8 UV-I 249 W/m 4.9 C 16.3 C 5.5 km/h (1 Bft)
15.03.2007 17:00 15.2 C 50 % 1024.7 hPa 0.0 l/m 2.6 km/h (1 Bft) O-SO 0.28 h 0.5 UV-I 75 W/m 4.8 C 15.2 C 3.9 km/h (1 Bft)
15.03.2007 18:00 13.3 C 57 % 1024.9 hPa 0.0 l/m 1.7 km/h (1 Bft) O-SO 0.02 h 0.0 UV-I 14 W/m 5.0 C 13.3 C 2.5 km/h (1 Bft)
15.03.2007 19:00 9.9 C 74 % 1025.3 hPa 0.0 l/m 2.8 km/h (1 Bft) O-SO 0.00 h 0.0 UV-I 0 W/m 5.6 C 9.9 C 4.0 km/h (1 Bft)
15.03.2007 20:00 8.5 C 81 % 1025.6 hPa 0.0 l/m 0.5 km/h (0 Bft) O-SO 0.00 h 0.0 UV-I 0 W/m 5.3 C 8.5 C 1.4 km/h (1 Bft)
15.03.2007 21:00 7.3 C 85 % 1025.7 hPa 0.0 l/m 1.2 km/h (1 Bft) O 0.00 h 0.0 UV-I 0 W/m 4.9 C 7.3 C 2.4 km/h (1 Bft)
15.03.2007 22:00 6.4 C 87 % 1025.7 hPa 0.0 l/m 1.5 km/h (1 Bft) O 0.00 h 0.0 UV-I 0 W/m 4.4 C 6.4 C 2.5 km/h (1 Bft)
15.03.2007 23:00 5.5 C 90 % 1025.7 hPa 0.0 l/m 1.4 km/h (1 Bft) O 0.00 h 0.0 UV-I 0 W/m 3.9 C 5.5 C 2.7 km/h (1 Bft)
16.03.2007 00:00 4.6 C 92 % 1025.7 hPa 0.0 l/m 0.9 km/h (0 Bft) O 0.00 h 0.0 UV-I 0 W/m 3.4 C 4.6 C 1.9 km/h (1 Bft)
16.03.2007 01:00 4.2 C 93 % 1025.8 hPa 0.0 l/m 0.7 km/h (0 Bft) O 0.00 h 0.0 UV-I 0 W/m 3.2 C 4.2 C 1.7 km/h (1 Bft)
16.03.2007 02:00 3.7 C 94 % 1025.7 hPa 0.0 l/m 0.1 km/h (0 Bft) O 0.00 h 0.0 UV-I 0 W/m 2.8 C 3.7 C 0.7 km/h (0 Bft)
16.03.2007 03:00 3.2 C 95 % 1025.2 hPa 0.0 l/m 0.4 km/h (0 Bft) O 0.00 h 0.0 UV-I 0 W/m 2.4 C 3.2 C 1.2 km/h (1 Bft)
16.03.2007 04:00 2.6 C 96 % 1025.4 hPa 0.0 l/m 0.4 km/h (0 Bft) O 0.00 h 0.0 UV-I 0 W/m 2.0 C 2.6 C 1.1 km/h (0 Bft)
16.03.2007 05:00 2.2 C 97 % 1025.6 hPa 0.0 l/m 0.4 km/h (0 Bft) O 0.00 h 0.0 UV-I 0 W/m 1.7 C 2.2 C 0.8 km/h (0 Bft)
16.03.2007 06:00 1.8 C 97 % 1026.1 hPa 0.0 l/m 0.1 km/h (0 Bft) O 0.00 h 0.0 UV-I 9 W/m 1.4 C 1.8 C 0.4 km/h (0 Bft)
16.03.2007 07:00 2.3 C 98 % 1026.6 hPa 0.0 l/m 0.0 km/h (0 Bft) N 0.00 h 0.0 UV-I 30 W/m 2.1 C 2.3 C 0.0 km/h (0 Bft)
16.03.2007 08:00 3.0 C 99 % 1027.0 hPa 0.0 l/m 0.1 km/h (0 Bft) O 0.00 h 0.5 UV-I 85 W/m 3.0 C 3.0 C 0.9 km/h (0 Bft)
16.03.2007 09:00 3.8 C 100 % 1027.1 hPa 0.0 l/m 0.4 km/h (0 Bft) O 0.00 h 0.8 UV-I 166 W/m 3.8 C 3.8 C 1.7 km/h (1 Bft)
16.03.2007 10:00 5.5 C 100 % 1027.1 hPa 0.0 l/m 0.4 km/h (0 Bft) O 0.70 h 1.7 UV-I 367 W/m 5.4 C 5.5 C 1.7 km/h (1 Bft)
16.03.2007 11:00 9.6 C 76 % 1026.4 hPa 0.0 l/m 1.1 km/h (1 Bft) N 1.00 h 2.6 UV-I 502 W/m 5.6 C 9.6 C 2.7 km/h (1 Bft)
16.03.2007 12:00 12.7 C 66 % 1025.7 hPa 0.0 l/m 2.5 km/h (1 Bft) N-NW 1.00 h 2.9 UV-I 543 W/m 6.5 C 12.7 C 4.4 km/h (1 Bft)
16.03.2007 13:00 15.0 C 56 % 1024.7 hPa 0.0 l/m 2.2 km/h (1 Bft) NW 1.00 h 2.8 UV-I 546 W/m 6.2 C 15.0 C 4.2 km/h (1 Bft)
16.03.2007 14:00 16.3 C 54 % 1024.1 hPa 0.0 l/m 2.6 km/h (1 Bft) NW 1.00 h 2.1 UV-I 481 W/m 6.8 C 16.3 C 5.0 km/h (1 Bft)
16.03.2007 15:00 16.7 C 52 % 1023.7 hPa 0.0 l/m 4.4 km/h (1 Bft) W-NW 1.00 h 1.3 UV-I 366 W/m 6.8 C 16.7 C 7.1 km/h (2 Bft)
16.03.2007 16:00 16.3 C 49 % 1023.5 hPa 0.0 l/m 8.6 km/h (2 Bft) W 0.98 h 0.7 UV-I 248 W/m 5.6 C 16.3 C 13.2 km/h (3 Bft)
16.03.2007 17:00 15.4 C 49 % 1023.4 hPa 0.0 l/m 7.3 km/h (2 Bft) W 0.32 h 0.5 UV-I 92 W/m 4.8 C 15.4 C 11.5 km/h (2 Bft)
16.03.2007 18:00 13.6 C 56 % 1023.8 hPa 0.0 l/m 2.6 km/h (1 Bft) W-NW 0.08 h 0.0 UV-I 19 W/m 4.9 C 13.6 C 4.7 km/h (1 Bft)
16.03.2007 19:00 12.0 C 63 % 1024.4 hPa 0.0 l/m 0.5 km/h (0 Bft) NO 0.00 h 0.0 UV-I 0 W/m 5.1 C 12.0 C 2.0 km/h (1 Bft)
16.03.2007 20:00 10.1 C 71 % 1025.1 hPa 0.0 l/m 3.4 km/h (1 Bft) O 0.00 h 0.0 UV-I 0 W/m 4.9 C 10.0 C 5.0 km/h (1 Bft)
16.03.2007 21:00 7.5 C 81 % 1025.7 hPa 0.0 l/m 1.7 km/h (1 Bft) O 0.00 h 0.0 UV-I 0 W/m 4.5 C 7.5 C 2.9 km/h (1 Bft)
16.03.2007 22:00 6.5 C 84 % 1025.7 hPa 0.0 l/m 2.9 km/h (1 Bft) O 0.00 h 0.0 UV-I 0 W/m 4.0 C 6.2 C 4.4 km/h (1 Bft)
16.03.2007 23:00 5.5 C 87 % 1025.5 hPa 0.0 l/m 1.8 km/h (1 Bft) O-SO 0.00 h 0.0 UV-I 0 W/m 3.5 C 5.4 C 3.3 km/h (1 Bft)
17.03.2007 00:00 4.8 C 89 % 1025.4 hPa 0.0 l/m 0.6 km/h (0 Bft) SO 0.00 h 0.0 UV-I 0 W/m 3.2 C 4.8 C 1.2 km/h (1 Bft)
17.03.2007 01:00 4.0 C 92 % 1025.3 hPa 0.0 l/m 1.8 km/h (1 Bft) O 0.00 h 0.0 UV-I 0 W/m 2.8 C 3.9 C 3.1 km/h (1 Bft)
17.03.2007 02:00 3.7 C 93 % 1025.1 hPa 0.0 l/m 1.9 km/h (1 Bft) O-SO 0.00 h 0.0 UV-I 0 W/m 2.7 C 3.6 C 3.4 km/h (1 Bft)
17.03.2007 03:00 3.3 C 94 % 1025.0 hPa 0.0 l/m 1.5 km/h (1 Bft) O-SO 0.00 h 0.0 UV-I 0 W/m 2.3 C 3.1 C 2.8 km/h (1 Bft)
17.03.2007 04:00 4.0 C 91 % 1024.8 hPa 0.0 l/m 1.4 km/h (1 Bft) O-SO 0.00 h 0.0 UV-I 0 W/m 2.8 C 4.0 C 2.9 km/h (1 Bft)
17.03.2007 05:00 4.3 C 88 % 1025.0 hPa 0.0 l/m 0.2 km/h (0 Bft) SW 0.00 h 0.0 UV-I 0 W/m 2.5 C 4.3 C 1.1 km/h (1 Bft)
17.03.2007 06:00 4.7 C 86 % 1025.3 hPa 0.0 l/m 0.8 km/h (0 Bft) W 0.03 h 0.0 UV-I 11 W/m 2.5 C 4.7 C 2.4 km/h (1 Bft)
17.03.2007 07:00 5.4 C 81 % 1025.4 hPa 0.0 l/m 2.8 km/h (1 Bft) W-SW 0.02 h 0.0 UV-I 69 W/m 2.3 C 5.2 C 5.5 km/h (1 Bft)
17.03.2007 08:00 6.4 C 75 % 1026.1 hPa 0.0 l/m 6.9 km/h (2 Bft) W 0.00 h 0.6 UV-I 130 W/m 2.4 C 5.3 C 11.8 km/h (2 Bft)
17.03.2007 09:00 7.5 C 71 % 1026.6 hPa 0.0 l/m 9.7 km/h (2 Bft) W 0.62 h 1.3 UV-I 292 W/m 2.7 C 6.0 C 15.9 km/h (3 Bft)
17.03.2007 10:00 9.3 C 64 % 1027.0 hPa 0.0 l/m 14.2 km/h (3 Bft) W-NW 0.52 h 1.6 UV-I 386 W/m 2.9 C 7.3 C 22.3 km/h (4 Bft)
17.03.2007 11:00 9.5 C 63 % 1026.8 hPa 0.0 l/m 18.8 km/h (3 Bft) W 0.27 h 1.9 UV-I 337 W/m 2.7 C 7.4 C 27.6 km/h (4 Bft)
17.03.2007 12:00 10.2 C 59 % 1026.6 hPa 0.0 l/m 19.3 km/h (3 Bft) W-NW 0.18 h 2.0 UV-I 335 W/m 2.5 C 10.2 C 28.8 km/h (5 Bft)
17.03.2007 13:00 9.8 C 62 % 1026.3 hPa 0.0 l/m 13.8 km/h (3 Bft) W 0.00 h 1.1 UV-I 148 W/m 2.8 C 7.8 C 21.1 km/h (4 Bft)
17.03.2007 14:00 10.1 C 61 % 1025.9 hPa 0.0 l/m 14.3 km/h (3 Bft) W 0.00 h 1.2 UV-I 163 W/m 2.9 C 9.6 C 21.6 km/h (4 Bft)
17.03.2007 15:00 10.8 C 59 % 1025.7 hPa 0.0 l/m 12.9 km/h (3 Bft) W-NW 0.00 h 1.1 UV-I 197 W/m 3.1 C 10.8 C 20.3 km/h (4 Bft)
17.03.2007 16:00 10.2 C 61 % 1025.6 hPa 0.0 l/m 15.4 km/h (3 Bft) W-NW 0.00 h 0.6 UV-I 80 W/m 2.9 C 9.5 C 23.4 km/h (4 Bft)
17.03.2007 17:00 9.8 C 62 % 1025.3 hPa 0.0 l/m 15.8 km/h (3 Bft) W-NW 0.00 h 0.0 UV-I 45 W/m 3.0 C 7.6 C 23.6 km/h (4 Bft)
17.03.2007 18:00 9.4 C 65 % 1025.1 hPa 0.0 l/m 13.2 km/h (3 Bft) W-NW 0.00 h 0.0 UV-I 9 W/m 3.3 C 7.4 C 20.4 km/h (4 Bft)
17.03.2007 19:00 9.1 C 68 % 1025.1 hPa 0.0 l/m 10.1 km/h (2 Bft) W-NW 0.00 h 0.0 UV-I 0 W/m 3.4 C 7.6 C 15.5 km/h (3 Bft)
17.03.2007 20:00 8.8 C 69 % 1025.1 hPa 0.0 l/m 7.5 km/h (2 Bft) W-NW 0.00 h 0.0 UV-I 0 W/m 3.5 C 7.7 C 11.0 km/h (2 Bft)
17.03.2007 21:00 8.3 C 72 % 1024.9 hPa 0.0 l/m 3.5 km/h (1 Bft) W 0.00 h 0.0 UV-I 0 W/m 3.6 C 8.0 C 5.8 km/h (1 Bft)
17.03.2007 22:00 7.5 C 76 % 1024.4 hPa 0.0 l/m 2.0 km/h (1 Bft) W-SW 0.00 h 0.0 UV-I 0 W/m 3.6 C 7.5 C 4.1 km/h (1 Bft)
17.03.2007 23:00 6.7 C 79 % 1023.9 hPa 0.0 l/m 1.0 km/h (0 Bft) W-SW 0.00 h 0.0 UV-I 0 W/m 3.3 C 6.7 C 2.4 km/h (1 Bft)
18.03.2007 00:00 5.7 C 83 % 1023.5 hPa 0.0 l/m 2.1 km/h (1 Bft) S-SW 0.00 h 0.0 UV-I 0 W/m 3.0 C 5.7 C 4.4 km/h (1 Bft)
18.03.2007 01:00 5.8 C 83 % 1022.7 hPa 0.0 l/m 2.7 km/h (1 Bft) W-SW 0.00 h 0.0 UV-I 0 W/m 3.1 C 5.6 C 5.0 km/h (1 Bft)
18.03.2007 02:00 6.6 C 81 % 1021.8 hPa 0.0 l/m 4.4 km/h (1 Bft) W-SW 0.00 h 0.0 UV-I 0 W/m 3.5 C 6.0 C 7.7 km/h (2 Bft)
18.03.2007 03:00 7.0 C 80 % 1020.7 hPa 0.0 l/m 5.6 km/h (1 Bft) W 0.00 h 0.0 UV-I 0 W/m 3.8 C 6.2 C 9.4 km/h (2 Bft)
18.03.2007 04:00 7.8 C 76 % 1019.6 hPa 0.0 l/m 6.3 km/h (2 Bft) W 0.00 h 0.0 UV-I 0 W/m 3.9 C 6.9 C 10.7 km/h (2 Bft)
18.03.2007 05:00 7.6 C 76 % 1018.6 hPa 0.0 l/m 6.8 km/h (2 Bft) W-SW 0.00 h 0.0 UV-I 0 W/m 3.7 C 6.6 C 11.7 km/h (2 Bft)
18.03.2007 06:00 6.3 C 80 % 1018.0 hPa 0.0 l/m 5.1 km/h (1 Bft) S-SW 0.00 h 0.0 UV-I 5 W/m 3.1 C 5.6 C 9.5 km/h (2 Bft)
18.03.2007 07:00 7.1 C 78 % 1017.3 hPa 0.0 l/m 11.2 km/h (2 Bft) W 0.00 h 0.0 UV-I 17 W/m 3.4 C 5.2 C 18.5 km/h (3 Bft)
18.03.2007 08:00 8.2 C 71 % 1016.6 hPa 0.0 l/m 19.5 km/h (3 Bft) W 0.00 h 0.7 UV-I 88 W/m 3.4 C 5.2 C 29.0 km/h (5 Bft)
18.03.2007 09:00 9.0 C 67 % 1015.8 hPa 0.0 l/m 13.9 km/h (3 Bft) W 0.27 h 1.2 UV-I 205 W/m 3.3 C 7.0 C 21.4 km/h (4 Bft)
18.03.2007 10:00 10.8 C 65 % 1014.2 hPa 0.0 l/m 7.5 km/h (2 Bft) SW 0.88 h 2.5 UV-I 534 W/m 4.5 C 10.7 C 14.3 km/h (3 Bft)
18.03.2007 11:00 12.0 C 60 % 1012.4 hPa 0.0 l/m 12.3 km/h (3 Bft) W 0.37 h 2.2 UV-I 394 W/m 4.4 C 12.0 C 18.9 km/h (3 Bft)
18.03.2007 12:00 11.6 C 64 % 1011.2 hPa 0.0 l/m 18.3 km/h (3 Bft) W 0.40 h 2.1 UV-I 331 W/m 4.9 C 11.6 C 26.7 km/h (4 Bft)
18.03.2007 13:00 12.1 C 61 % 1009.4 hPa 0.0 l/m 24.7 km/h (4 Bft) W 0.75 h 2.9 UV-I 505 W/m 4.7 C 12.1 C 36.1 km/h (5 Bft)
18.03.2007 14:00 12.8 C 54 % 1007.8 hPa 0.0 l/m 24.3 km/h (4 Bft) W 0.95 h 2.5 UV-I 545 W/m 3.9 C 12.8 C 35.6 km/h (5 Bft)
18.03.2007 15:00 12.3 C 53 % 1006.5 hPa 0.0 l/m 25.4 km/h (4 Bft) W 0.40 h 1.3 UV-I 256 W/m 2.9 C 12.3 C 36.9 km/h (5 Bft)
18.03.2007 16:00 10.8 C 63 % 1005.7 hPa 0.2 l/m 20.3 km/h (4 Bft) W 0.00 h 0.5 UV-I 40 W/m 4.0 C 10.1 C 29.9 km/h (5 Bft)
18.03.2007 17:00 8.3 C 88 % 1005.5 hPa 1.8 l/m 4.4 km/h (1 Bft) W 0.00 h 0.0 UV-I 12 W/m 6.4 C 7.9 C 7.2 km/h (2 Bft)
18.03.2007 18:00 7.8 C 94 % 1005.0 hPa 2.0 l/m 2.3 km/h (1 Bft) W-NW 0.00 h 0.0 UV-I 6 W/m 6.8 C 7.7 C 4.3 km/h (1 Bft)
18.03.2007 19:00 7.7 C 93 % 1003.9 hPa 1.4 l/m 3.9 km/h (1 Bft) W-SW 0.00 h 0.0 UV-I 0 W/m 6.7 C 7.4 C 6.5 km/h (2 Bft)
18.03.2007 20:00 7.6 C 93 % 1002.7 hPa 0.2 l/m 2.8 km/h (1 Bft) W-SW 0.00 h 0.0 UV-I 0 W/m 6.6 C 7.5 C 5.1 km/h (1 Bft)
18.03.2007 21:00 7.1 C 86 % 1001.8 hPa 0.4 l/m 20.3 km/h (4 Bft) W 0.00 h 0.0 UV-I 0 W/m 5.0 C 3.9 C 30.5 km/h (5 Bft)
18.03.2007 22:00 4.2 C 87 % 1003.1 hPa 0.6 l/m 17.1 km/h (3 Bft) W 0.00 h 0.0 UV-I 0 W/m 2.3 C 0.6 C 25.6 km/h (4 Bft)
18.03.2007 23:00 3.3 C 91 % 1002.8 hPa 0.2 l/m 11.1 km/h (2 Bft) W-NW 0.00 h 0.0 UV-I 0 W/m 1.9 C 0.4 C 17.0 km/h (3 Bft)
Min-Datum _ 12.03.07 12.03.07 18.03.07 - 12.03.07 - - - - 12.03.07 12.03.07 12.03.07
_ Min-Zeit 07:32 15:49 21:15 - 00:14 - - - - 15:55 07:33 00:28
Minimum _ -1.4 C 28 % 1001.3 hPa - 0.0 km/h (0 Bft) - - - - -3.3 C -3.4 C 0.0 km/h (0 Bft)
Max-Datum _ 13.03.07 16.03.07 14.03.07 18.03.07 18.03.07 - 12.03.07 18.03.07 18.03.07 16.03.07 13.03.07 18.03.07
_ Max-Zeit 15:52 08:31 08:15 18:03 14:54 - 07:39 12:01 12:02 15:22 15:52 13:33
Maximum _ 17.9 C 100 % 1032.5 hPa 2.0 l/m 41.1 km/h
W (6 Bft)
- 0.02 h 4.1 UV-I 891 W/m 8.6 C 17.9 C 58.9 km/h
W-NW (7 Bft)
Durchschnitt _ 7.9 C 74 % 1025.3 hPa #6.8 l/m 4.1 km/h (1 Bft) W #49:51 h 1.7 UV-I 270 W/m 3.0 C 7.7 C 6.7 km/h (2 Bft)
© Kaiko 2007